Time;durP1;ratioP1;P1;durP2;ratioP2;P2;SDS_P1;SDS_P2;PMS_P1;PMS_P2;Temp;Humidity;BMP_temperature;BMP_pressure;BME280_temperature;BME280_humidity;BME280_pressure;Samples;Min_cycle;Max_cycle;Signal;HPM_P1;HPM_P2
2023/01/26 00:00:46;;;;;;;1999.90;999.90;;;;;;;1.80;100.00;98381.81;5094105;28;20024;-78
2023/01/26 00:03:11;;;;;;;1999.90;999.90;;;;;;;1.91;100.00;98389.13;5097864;28;20032;-75
2023/01/26 00:05:37;;;;;;;1999.90;999.90;;;;;;;1.83;100.00;98378.66;5092653;28;20020;-76
2023/01/26 00:08:03;;;;;;;1999.90;999.90;;;;;;;1.83;100.00;98389.44;5092586;28;20040;-76
2023/01/26 00:10:28;;;;;;;1999.90;999.90;;;;;;;1.89;100.00;98380.44;5092617;28;20028;-76
2023/01/26 00:12:53;;;;;;;1999.90;999.90;;;;;;;1.89;100.00;98377.75;5092425;28;20028;-76
2023/01/26 00:15:19;;;;;;;1999.90;999.90;;;;;;;1.85;100.00;98368.47;5092573;28;20043;-76
2023/01/26 00:17:44;;;;;;;1999.90;999.90;;;;;;;1.90;100.00;98375.88;5092539;28;20130;-74
2023/01/26 00:20:10;;;;;;;1999.90;999.90;;;;;;;1.86;100.00;98366.59;5092332;28;20016;-77
2023/01/26 00:22:35;;;;;;;1999.90;999.90;;;;;;;1.60;100.00;98320.09;5074224;28;20028;-76
2023/01/26 00:25:00;;;;;;;1999.90;999.90;;;;;;;1.80;100.00;98346.75;5091125;28;20024;-76
2023/01/26 00:27:26;;;;;;;1999.90;999.90;;;;;;;1.80;100.00;98357.56;5092428;28;20056;-75
2023/01/26 00:29:51;;;;;;;1999.90;999.90;;;;;;;1.82;100.00;98360.81;5090827;28;20472;-75
2023/01/26 00:32:16;;;;;;;1999.90;999.90;;;;;;;1.85;100.00;98348.78;5092259;28;20031;-76
2023/01/26 00:34:42;;;;;;;1999.90;999.90;;;;;;;1.85;100.00;98348.78;5091071;28;20035;-76
2023/01/26 00:37:07;;;;;;;1999.90;999.90;;;;;;;1.79;100.00;98342.41;5091977;28;20024;-76
2023/01/26 00:39:32;;;;;;;1999.90;999.90;;;;;;;1.83;100.00;98340.91;5092079;28;20035;-76
2023/01/26 00:42:10;;;;;;;1999.90;999.90;;;;;;;1.74;100.00;98326.13;5091067;28;20074;-75
2023/01/26 00:44:37;;;;;;;1999.90;999.90;;;;;;;1.81;100.00;98339.50;5091905;28;20439;-76
2023/01/26 00:47:03;;;;;;;1999.90;999.90;;;;;;;1.59;100.00;98317.63;5090758;28;20028;-75
2023/01/26 00:49:28;;;;;;;1999.90;999.90;;;;;;;1.78;100.00;98339.97;5091645;28;20121;-75
2023/01/26 00:51:53;;;;;;;1999.90;999.90;;;;;;;1.80;100.00;98344.06;5091805;28;20024;-76
2023/01/26 00:54:18;;;;;;;1999.90;999.90;;;;;;;1.75;100.00;98332.34;5090204;28;20030;-76
2023/01/26 00:56:44;;;;;;;1999.90;999.90;;;;;;;1.75;100.00;98346.63;5091517;28;20024;-76
2023/01/26 00:59:09;;;;;;;1999.90;999.90;;;;;;;1.73;100.00;98335.25;5090433;28;20024;-76
2023/01/26 01:01:34;;;;;;;1999.90;999.90;;;;;;;1.75;100.00;98338.56;5091443;28;20465;-75
2023/01/26 01:04:00;;;;;;;1999.90;999.90;;;;;;;1.77;100.00;98335.59;5090384;28;20058;-76
2023/01/26 01:06:25;;;;;;;1999.90;999.90;;;;;;;1.76;100.00;98333.97;5090163;28;20036;-76
2023/01/26 01:08:50;;;;;;;1999.90;999.90;;;;;;;1.69;100.00;98334.09;5091330;28;20542;-77
2023/01/26 01:11:16;;;;;;;1999.90;999.90;;;;;;;1.59;100.00;98331.09;5091086;28;20111;-77
2023/01/26 01:13:41;;;;;;;1999.90;999.90;;;;;;;1.63;100.00;98329.56;5091553;28;20031;-78
2023/01/26 01:16:08;;;;;;;1999.90;999.90;;;;;;;1.62;100.00;98327.94;5089966;28;20020;-77
2023/01/26 01:18:35;;;;;;;1999.90;999.90;;;;;;;1.63;100.00;98320.69;5090056;28;20408;-75
2023/01/26 01:21:07;;;;;;;1999.90;999.90;;;;;;;1.71;100.00;98328.44;5091216;28;20020;-76
2023/01/26 01:23:33;;;;;;;1999.90;999.90;;;;;;;1.68;100.00;98318.13;5091305;28;20053;-76
2023/01/26 01:25:59;;;;;;;1999.90;999.90;;;;;;;1.67;100.00;98320.00;5089594;28;20123;-74
2023/01/26 01:28:25;;;;;;;1999.90;999.90;;;;;;;1.68;100.00;98318.94;5091304;28;20024;-77
2023/01/26 01:30:51;;;;;;;1999.90;999.90;;;;;;;1.68;100.00;98320.81;5089779;28;20499;-76
2023/01/26 01:33:16;;;;;;;1999.90;999.90;;;;;;;1.67;100.00;98327.25;5091440;28;20574;-75
2023/01/26 01:35:41;;;;;;;1999.90;999.90;;;;;;;1.65;100.00;98318.59;5089937;28;20020;-76
2023/01/26 01:38:06;;;;;;;1999.90;999.90;;;;;;;1.67;100.00;98314.59;5089704;28;20027;-76
2023/01/26 01:40:32;;;;;;;1999.90;999.90;;;;;;;1.70;100.00;98319.53;5090911;28;20389;-75
2023/01/26 01:42:57;;;;;;;1999.90;999.90;;;;;;;1.64;100.00;98309.66;5089661;28;20067;-76
2023/01/26 01:45:26;;;;;;;1999.90;999.90;;;;;;;1.69;100.00;98312.50;5089525;28;20085;-75
2023/01/26 01:48:01;;;;;;;1999.90;999.90;;;;;;;1.74;100.00;98314.50;5089679;28;20072;-76
2023/01/26 01:50:27;;;;;;;1999.90;999.90;;;;;;;1.70;100.00;98318.69;5094526;28;20055;-76
2023/01/26 01:52:54;;;;;;;1999.90;999.90;;;;;;;1.66;100.00;98304.84;5092568;28;20059;-79
2023/01/26 01:55:20;;;;;;;1999.90;999.90;;;;;;;1.69;100.00;98303.59;5090868;28;20043;-76
2023/01/26 01:57:52;;;;;;;1999.90;999.90;;;;;;;1.64;100.00;98309.66;5089418;28;20480;-76
2023/01/26 02:00:20;;;;;;;1999.90;999.90;;;;;;;1.60;100.00;98300.38;5090470;28;20016;-76
2023/01/26 02:03:09;;;;;;;1999.90;999.90;;;;;;;1.60;100.00;98301.22;5090728;28;20557;-76
2023/01/26 02:05:41;;;;;;;1999.90;999.90;;;;;;;1.56;100.00;98304.59;5089171;28;20059;-76
2023/01/26 02:08:08;;;;;;;1999.90;999.90;;;;;;;1.55;100.00;98290.31;5089207;28;20098;-75
2023/01/26 02:10:35;;;;;;;1999.90;999.90;;;;;;;1.51;100.00;98286.41;5090576;28;20054;-76
2023/01/26 02:13:02;;;;;;;1999.90;999.90;;;;;;;1.49;100.00;98298.47;5090589;28;20028;-77
2023/01/26 02:15:29;;;;;;;1999.90;999.90;;;;;;;1.52;100.00;98293.47;5091634;28;20493;-75
2023/01/26 02:17:55;;;;;;;1999.90;999.90;;;;;;;1.44;100.00;98282.19;5091561;28;20031;-76
2023/01/26 02:20:43;;;;;;;1999.90;999.90;;;;;;;1.57;100.00;98292.75;5091450;28;20885;-76
2023/01/26 02:23:29;;;;;;;1999.90;999.90;;;;;;;1.42;100.00;98290.50;5090476;28;20059;-77
2023/01/26 02:25:56;;;;;;;1999.90;999.90;;;;;;;1.44;100.00;98295.66;5090413;28;20055;-75
2023/01/26 02:28:24;;;;;;;1999.90;999.90;;;;;;;1.46;100.00;98280.06;5089043;28;20028;-77
2023/01/26 02:30:51;;;;;;;1999.90;999.90;;;;;;;1.45;100.00;98273.88;5090445;28;20024;-78
2023/01/26 02:33:22;;;;;;;1999.90;999.90;;;;;;;1.42;100.00;98278.88;5089334;28;20115;-76
2023/01/26 02:35:48;;;;;;;1999.90;999.90;;;;;;;1.37;100.00;98274.19;5089022;28;20527;-75
2023/01/26 02:38:13;;;;;;;1999.90;999.90;;;;;;;1.42;100.00;98273.50;5090180;28;20051;-76
2023/01/26 02:40:50;;;;;;;1999.90;999.90;;;;;;;1.44;100.00;98261.44;5090511;28;20056;-76
2023/01/26 02:43:16;;;;;;;1999.90;999.90;;;;;;;1.42;100.00;98252.75;5090079;28;20082;-77
2023/01/26 02:45:42;;;;;;;1999.90;999.90;;;;;;;1.33;100.00;98242.53;5090302;28;20029;-75
2023/01/26 02:48:08;;;;;;;1999.90;999.90;;;;;;;1.27;100.00;98243.47;5090207;28;20095;-76
2023/01/26 02:50:33;;;;;;;1999.90;999.90;;;;;;;1.32;100.00;98249.78;5090339;28;20111;-75
2023/01/26 02:53:00;;;;;;;1999.90;999.90;;;;;;;1.31;100.00;98244.66;5090773;28;20040;-76
2023/01/26 02:55:26;;;;;;;1999.90;999.90;;;;;;;1.22;100.00;98238.78;5090868;28;20028;-75
2023/01/26 02:57:57;;;;;;;1999.90;999.90;;;;;;;1.26;100.00;98233.72;5090017;28;20029;-76
2023/01/26 03:00:25;;;;;;;1999.90;999.90;;;;;;;1.13;100.00;98232.03;5090245;28;20024;-75
2023/01/26 03:02:53;;;;;;;1999.90;999.90;;;;;;;1.19;100.00;98231.13;5090280;28;20062;-75
2023/01/26 03:05:19;;;;;;;1999.90;999.90;;;;;;;1.15;100.00;98221.88;5090920;28;20028;-76
2023/01/26 03:07:44;;;;;;;1999.90;999.90;;;;;;;1.14;100.00;98225.59;5093762;28;20048;-75
2023/01/26 03:10:11;;;;;;;1999.90;999.90;;;;;;;1.15;100.00;98223.75;5092719;28;20397;-76
2023/01/26 03:12:36;;;;;;;1999.90;999.90;;;;;;;1.19;100.00;98224.94;5093843;28;20505;-76
2023/01/26 03:17:47;;;;;;;1999.90;999.90;;;;;;;1.22;100.00;98216.41;5093898;28;20059;-76
2023/01/26 03:28:25;;;;;;;1999.90;999.90;;;;;;;1.21;100.00;98212.06;5093781;28;20059;-76
2023/01/26 03:30:54;;;;;;;1999.90;999.90;;;;;;;1.16;100.00;98206.53;5093498;28;20016;-76
2023/01/26 03:33:20;;;;;;;1999.90;999.90;;;;;;;1.13;100.00;98209.69;5092302;28;20028;-74
2023/01/26 03:35:45;;;;;;;1999.90;999.90;;;;;;;1.13;100.00;98201.63;5094347;28;20016;-74
2023/01/26 03:38:11;;;;;;;1999.90;999.90;;;;;;;1.07;100.00;98206.84;5095252;28;20032;-77
2023/01/26 03:57:02;;;;;;;1999.90;999.90;;;;;;;1.16;100.00;98195.78;5093156;28;20035;-75
2023/01/26 03:59:36;;;;;;;1999.90;999.90;;;;;;;1.14;100.00;98179.00;5092709;28;20423;-75
2023/01/26 04:10:18;;;;;;;1999.90;999.90;;;;;;;1.09;100.00;98166.22;5095641;28;20034;-75
2023/01/26 04:12:44;;;;;;;1999.90;999.90;;;;;;;0.97;100.00;98160.78;5112403;28;20024;-76
2023/01/26 04:23:21;;;;;;;1999.90;999.90;;;;;;;0.95;100.00;98167.47;5101683;28;20032;-76
2023/01/26 04:25:47;;;;;;;1999.90;999.90;;;;;;;0.89;100.00;98158.44;5092069;28;20016;-77
2023/01/26 04:28:12;;;;;;;1999.90;999.90;;;;;;;1.04;100.00;98155.31;5092052;28;20020;-75
2023/01/26 04:30:38;;;;;;;1999.90;999.90;;;;;;;0.93;100.00;98156.09;5092154;28;20050;-74
2023/01/26 04:33:03;;;;;;;1999.90;999.90;;;;;;;0.95;100.00;98137.84;5091794;28;20114;-77
2023/01/26 04:35:29;;;;;;;1999.90;999.90;;;;;;;1.01;100.00;98145.00;5090934;28;20055;-75
2023/01/26 04:37:54;;;;;;;1999.90;999.90;;;;;;;0.94;100.00;98142.41;5091754;28;20011;-76
2023/01/26 04:40:19;;;;;;;1999.90;999.90;;;;;;;0.98;100.00;98143.59;5090169;28;20047;-76
2023/01/26 04:42:45;;;;;;;1999.90;999.90;;;;;;;1.01;100.00;98143.13;5092000;28;20028;-77
2023/01/26 04:45:11;;;;;;;1999.90;999.90;;;;;;;1.07;100.00;98141.38;5091553;28;20442;-74
2023/01/26 04:47:36;;;;;;;1999.90;999.90;;;;;;;0.99;100.00;98133.66;5091644;28;20072;-75
2023/01/26 04:50:02;;;;;;;1999.90;999.90;;;;;;;0.96;100.00;98145.72;5089941;28;20028;-76
2023/01/26 04:52:27;;;;;;;1999.90;999.90;;;;;;;0.97;100.00;98131.16;5099838;28;20104;-75
2023/01/26 04:54:52;;;;;;;1999.90;999.90;;;;;;;0.99;100.00;98145.25;5111025;28;20024;-77
2023/01/26 04:57:22;;;;;;;1999.90;999.90;;;;;;;1.04;100.00;98136.47;5111865;28;20388;-74
2023/01/26 04:59:47;;;;;;;1999.90;999.90;;;;;;;1.03;100.00;98135.63;5107104;28;20032;-76
2023/01/26 05:02:13;;;;;;;1999.90;999.90;;;;;;;1.02;100.00;98136.72;5102743;28;20023;-74
2023/01/26 05:04:38;;;;;;;1999.90;999.90;;;;;;;1.16;100.00;98144.59;5091936;28;20110;-75
2023/01/26 05:07:03;;;;;;;1999.90;999.90;;;;;;;1.14;100.00;98135.91;5106247;28;20197;-75
2023/01/26 05:09:29;;;;;;;1999.90;999.90;;;;;;;1.07;100.00;98141.38;5111451;28;20039;-76
2023/01/26 05:12:32;;;;;;;1999.90;999.90;;;;;;;1.06;100.00;98135.22;5111339;28;20030;-75
2023/01/26 05:14:39;;;;;;;1999.90;999.90;;;;;;;1.08;100.00;98126.88;5111351;28;20396;-76
2023/01/26 05:17:06;;;;;;;1999.90;999.90;;;;;;;1.15;100.00;98137.56;5092622;28;20086;-75
2023/01/26 05:19:31;;;;;;;1999.90;999.90;;;;;;;1.20;100.00;98140.38;5107123;28;20059;-76
2023/01/26 05:21:56;;;;;;;1999.90;999.90;;;;;;;1.14;100.00;98138.59;5111370;28;20115;-75
2023/01/26 05:24:22;;;;;;;1999.90;999.90;;;;;;;1.16;100.00;98140.00;5110076;28;20388;-76
2023/01/26 05:27:19;;;;;;;1999.90;999.90;;;;;;;1.20;100.00;98137.66;5112190;28;20034;-80
2023/01/26 05:29:32;;;;;;;1999.90;999.90;;;;;;;1.23;100.00;98138.03;5098703;28;20031;-76
2023/01/26 05:31:57;;;;;;;1999.90;999.90;;;;;;;1.23;100.00;98139.91;5090639;28;20036;-76
2023/01/26 05:34:23;;;;;;;1999.90;999.90;;;;;;;1.19;100.00;98152.22;5090915;28;20472;-75
2023/01/26 05:36:48;;;;;;;1999.90;999.90;;;;;;;1.12;100.00;98138.84;5098721;28;20023;-76
2023/01/26 05:39:13;;;;;;;1999.90;999.90;;;;;;;1.13;100.00;98134.28;5101784;28;20055;-76
2023/01/26 05:41:39;;;;;;;1999.90;999.90;;;;;;;1.20;100.00;98132.28;5111167;28;20038;-76
2023/01/26 05:44:04;;;;;;;1999.90;999.90;;;;;;;1.16;100.00;98133.81;5110477;28;20047;-76
2023/01/26 05:46:29;;;;;;;1999.90;999.90;;;;;;;1.08;100.00;98138.47;5105214;28;20043;-76
2023/01/26 05:48:55;;;;;;;1999.90;999.90;;;;;;;1.16;100.00;98137.31;5109705;28;20023;-76
2023/01/26 05:51:20;;;;;;;1999.90;999.90;;;;;;;1.14;100.00;98133.22;5111473;28;20041;-78
2023/01/26 05:53:45;;;;;;;1999.90;999.90;;;;;;;1.12;100.00;98127.25;5109394;28;20535;-75
2023/01/26 05:56:11;;;;;;;1999.90;999.90;;;;;;;1.17;100.00;98125.50;5110859;28;20094;-76
2023/01/26 05:58:36;;;;;;;1999.90;999.90;;;;;;;1.22;100.00;98124.81;5092393;28;20035;-71
2023/01/26 06:01:04;;;;;;;1999.90;999.90;;;;;;;1.14;100.00;98107.09;5094834;28;20039;-75
2023/01/26 06:03:30;;;;;;;1999.90;999.90;;;;;;;1.20;100.00;98129.59;5090151;28;20024;-74
2023/01/26 06:05:55;;;;;;;1999.90;999.90;;;;;;;1.21;100.00;98123.16;5090625;28;20031;-75
2023/01/26 06:08:20;;;;;;;1999.90;999.90;;;;;;;1.24;100.00;98134.31;5090838;28;20093;-75
2023/01/26 06:10:46;;;;;;;1999.90;999.90;;;;;;;1.18;100.00;98121.75;5110469;28;20043;-78
2023/01/26 06:13:11;;;;;;;1999.90;999.90;;;;;;;1.21;100.00;98128.56;5105267;28;20034;-79
2023/01/26 06:15:36;;;;;;;1999.90;999.90;;;;;;;1.12;100.00;98121.84;5089043;28;20020;-78
2023/01/26 06:18:02;;;;;;;1999.90;999.90;;;;;;;1.19;100.00;98117.19;5099840;28;20080;-78
2023/01/26 06:20:27;;;;;;;1999.90;999.90;;;;;;;1.17;100.00;98130.06;5110880;28;20066;-77
2023/01/26 06:22:52;;;;;;;1999.90;999.90;;;;;;;1.12;100.00;98111.91;5109324;28;20055;-81
2023/01/26 06:25:17;;;;;;;1999.90;999.90;;;;;;;1.20;100.00;98124.19;5108833;28;20070;-79
2023/01/26 06:27:43;;;;;;;1999.90;999.90;;;;;;;1.22;100.00;98116.72;5107769;28;20023;-78
2023/01/26 06:30:09;;;;;;;1999.90;999.90;;;;;;;1.36;100.00;98113.59;5107470;28;20032;-78
2023/01/26 06:32:35;;;;;;;1999.90;999.90;;;;;;;1.30;100.00;98109.13;5107595;28;20047;-79
2023/01/26 06:35:02;;;;;;;1999.90;999.90;;;;;;;1.35;100.00;98124.56;5109151;28;20036;-79
2023/01/26 06:37:27;;;;;;;1999.90;999.90;;;;;;;1.29;100.00;98128.19;5109819;28;20030;-78
2023/01/26 06:39:52;;;;;;;1999.90;999.90;;;;;;;1.03;100.00;98097.94;5111740;28;20023;-78
2023/01/26 06:42:18;;;;;;;1999.90;999.90;;;;;;;1.21;100.00;98115.91;5113377;28;20031;-78
2023/01/26 06:44:43;;;;;;;1999.90;999.90;;;;;;;1.20;100.00;98102.66;5109005;28;20035;-78
2023/01/26 06:47:08;;;;;;;1999.90;999.90;;;;;;;1.24;100.00;98110.06;5086708;28;20023;-75
2023/01/26 06:49:33;;;;;;;1999.90;999.90;;;;;;;1.12;100.00;98111.91;5113731;28;20519;-78
2023/01/26 06:52:17;;;;;;;1999.90;999.90;;;;;;;1.26;100.00;98115.19;5104039;28;20028;-78
2023/01/26 06:54:43;;;;;;;1999.90;999.90;;;;;;;1.08;100.00;98114.25;5091518;28;20078;-77
2023/01/26 06:57:08;;;;;;;1999.90;999.90;;;;;;;1.07;100.00;98082.97;5090252;28;20468;-78
2023/01/26 06:59:33;;;;;;;1999.90;999.90;;;;;;;1.15;100.00;98110.63;5091508;28;20111;-78
2023/01/26 07:01:59;;;;;;;1999.90;999.90;;;;;;;1.20;100.00;98108.03;5091909;28;20020;-78
2023/01/26 07:04:26;;;;;;;1999.90;999.90;;;;;;;1.21;100.00;98109.69;5091514;28;20024;-77
2023/01/26 07:06:51;;;;;;;1999.90;999.90;;;;;;;1.12;100.00;98097.63;5093046;28;20130;-77
2023/01/26 07:09:16;;;;;;;1999.90;999.90;;;;;;;1.12;100.00;98106.53;5092643;28;20448;-78
2023/01/26 07:11:41;;;;;;;1999.90;999.90;;;;;;;1.17;100.00;98108.50;5092566;28;20028;-77
2023/01/26 07:14:07;;;;;;;1999.90;999.90;;;;;;;1.11;100.00;98109.44;5092749;28;20107;-76
2023/01/26 07:16:32;;;;;;;1999.90;999.90;;;;;;;1.07;100.00;98104.50;5092664;28;20081;-78
2023/01/26 07:18:57;;;;;;;1999.90;999.90;;;;;;;1.11;100.00;98106.75;5090695;28;20154;-78
2023/01/26 07:21:23;;;;;;;1999.90;999.90;;;;;;;1.08;100.00;98106.16;5092775;28;20059;-77
2023/01/26 07:23:51;;;;;;;1999.90;999.90;;;;;;;1.19;100.00;98114.50;5105289;28;20023;-78
2023/01/26 07:26:16;;;;;;;1999.90;999.90;;;;;;;1.20;100.00;98121.50;5092679;28;20042;-78
2023/01/26 07:28:42;;;;;;;1999.90;999.90;;;;;;;1.09;100.00;98104.28;5092359;28;20020;-76
2023/01/26 07:31:10;;;;;;;1999.90;999.90;;;;;;;1.12;100.00;98105.69;5092547;28;20039;-77
2023/01/26 07:33:35;;;;;;;1999.90;999.90;;;;;;;1.21;100.00;98117.78;5091234;28;20024;-77
2023/01/26 07:36:01;;;;;;;1999.90;999.90;;;;;;;1.22;100.00;98114.03;5092519;28;20020;-78
2023/01/26 07:38:29;;;;;;;1999.90;999.90;;;;;;;1.21;100.00;98109.69;5092214;28;20333;-78
2023/01/26 07:40:55;;;;;;;1999.90;999.90;;;;;;;1.20;100.00;98099.97;5090880;28;20401;-76
2023/01/26 07:43:21;;;;;;;1999.90;999.90;;;;;;;1.20;100.00;98098.09;5091946;28;20119;-77
2023/01/26 07:45:51;;;;;;;1999.90;999.90;;;;;;;1.25;100.00;98108.19;5091706;28;20126;-78
2023/01/26 07:48:18;;;;;;;1999.90;999.90;;;;;;;1.30;100.00;98103.72;5091826;28;20427;-76
2023/01/26 07:50:46;;;;;;;1999.90;999.90;;;;;;;1.27;100.00;98106.06;5091464;28;20028;-78
2023/01/26 07:53:14;;;;;;;1999.90;999.90;;;;;;;1.27;100.00;98106.91;5091729;28;20429;-78
2023/01/26 07:55:42;;;;;;;1999.90;999.90;;;;;;;1.14;100.00;98093.63;5091610;28;20027;-77
2023/01/26 07:58:08;;;;;;;1999.90;999.90;;;;;;;1.25;100.00;98106.31;5090326;28;20466;-77
2023/01/26 08:00:33;;;;;;;1999.90;999.90;;;;;;;1.22;100.00;98127.50;5091620;28;20023;-78
2023/01/26 08:02:59;;;;;;;1999.90;999.90;;;;;;;1.21;100.00;98115.91;5090543;28;20032;-77
2023/01/26 08:05:24;;;;;;;1999.90;999.90;;;;;;;1.16;100.00;98121.16;5091465;28;20065;-77
2023/01/26 08:07:49;;;;;;;1999.90;999.90;;;;;;;1.15;100.00;98110.63;5091587;28;20493;-77
2023/01/26 08:10:15;;;;;;;1999.90;999.90;;;;;;;1.13;100.00;98104.66;5091315;28;20028;-76
2023/01/26 08:12:40;;;;;;;1999.90;999.90;;;;;;;1.18;100.00;98112.84;5091161;28;20032;-77
2023/01/26 08:15:06;;;;;;;1999.90;999.90;;;;;;;1.23;100.00;98112.97;5089912;28;20050;-77
2023/01/26 08:17:34;;;;;;;1999.90;999.90;;;;;;;1.24;100.00;98104.66;5091251;28;20020;-76
2023/01/26 08:20:00;;;;;;;1999.90;999.90;;;;;;;1.17;100.00;98113.91;5090793;28;20031;-77
2023/01/26 08:22:25;;;;;;;1999.90;999.90;;;;;;;1.24;100.00;98117.31;5089921;28;20038;-76
2023/01/26 08:24:50;;;;;;;1999.90;999.90;;;;;;;1.21;100.00;98121.28;5089660;28;20062;-76
2023/01/26 08:27:16;;;;;;;1999.90;999.90;;;;;;;1.19;100.00;98109.91;5091173;28;20020;-77
2023/01/26 08:29:41;;;;;;;1999.90;999.90;;;;;;;1.27;100.00;98124.94;5090970;28;20485;-76
2023/01/26 08:32:07;;;;;;;1999.90;999.90;;;;;;;1.22;100.00;98124.81;5090989;28;20050;-77
2023/01/26 08:34:33;;;;;;;1999.90;999.90;;;;;;;1.21;100.00;98123.16;5090941;28;20036;-78
2023/01/26 08:36:58;;;;;;;1999.90;999.90;;;;;;;1.21;100.00;98115.09;5093153;28;20110;-76
2023/01/26 08:39:24;;;;;;;1999.90;999.90;;;;;;;1.29;100.00;98133.59;5110817;28;20501;-76
2023/01/26 08:41:49;;;;;;;1999.90;999.90;;;;;;;1.18;100.00;98126.31;5111338;28;20374;-77
2023/01/26 08:44:15;;;;;;;1999.90;999.90;;;;;;;1.16;100.00;98128.44;5110968;28;20488;-77
2023/01/26 08:46:42;;;;;;;1999.90;999.90;;;;;;;1.11;100.00;98123.72;5111235;28;20047;-76
2023/01/26 08:49:08;;;;;;;1999.90;999.90;;;;;;;1.17;100.00;98125.50;5110925;28;20030;-76
2023/01/26 08:51:33;;;;;;;1999.90;999.90;;;;;;;1.19;100.00;98125.28;5090922;28;22345;-76
2023/01/26 08:53:59;;;;;;;1999.90;999.90;;;;;;;1.16;100.00;98128.44;5098954;28;20028;-77
2023/01/26 08:56:24;;;;;;;1999.90;999.90;;;;;;;1.22;100.00;98119.44;5107278;28;20472;-76
2023/01/26 08:58:50;;;;;;;1999.90;999.90;;;;;;;1.13;100.00;98124.31;5110869;28;20038;-77
2023/01/26 09:01:15;;;;;;;1999.90;999.90;;;;;;;1.25;100.00;98130.56;5111786;28;20525;-76
2023/01/26 09:03:42;;;;;;;1999.90;999.90;;;;;;;1.23;100.00;98127.25;5110889;28;20091;-78
2023/01/26 09:06:09;;;;;;;1999.90;999.90;;;;;;;1.05;100.00;98122.78;5113221;28;20069;-77
2023/01/26 09:08:35;;;;;;;1999.90;999.90;;;;;;;1.16;100.00;98123.03;5111190;28;20027;-78
2023/01/26 09:11:00;;;;;;;1999.90;999.90;;;;;;;1.16;100.00;98125.75;5111474;28;20027;-77
2023/01/26 09:13:26;;;;;;;1999.90;999.90;;;;;;;1.17;100.00;98119.28;5111154;28;20031;-77
2023/01/26 09:15:51;;;;;;;1999.90;999.90;;;;;;;1.20;100.00;98122.34;5111135;28;20035;-76
2023/01/26 09:18:17;;;;;;;1999.90;999.90;;;;;;;1.19;100.00;98119.88;5111175;28;20020;-77
2023/01/26 09:20:43;;;;;;;1999.90;999.90;;;;;;;1.25;100.00;98113.56;5111624;28;20114;-81
2023/01/26 09:23:09;;;;;;;1999.90;999.90;;;;;;;1.22;100.00;98122.94;5089690;28;20393;-78
2023/01/26 09:25:40;;;;;;;1999.90;999.90;;;;;;;1.17;100.00;98111.19;5089338;28;20020;-77
2023/01/26 09:28:06;;;;;;;1999.90;999.90;;;;;;;1.22;100.00;98112.16;5090262;28;20474;-77
2023/01/26 09:30:32;;;;;;;1999.90;999.90;;;;;;;1.20;100.00;98108.03;5089495;28;20107;-77
2023/01/26 09:32:58;;;;;;;1999.90;999.90;;;;;;;1.27;100.00;98128.44;5107947;28;20042;-77
2023/01/26 09:35:25;;;;;;;1999.90;999.90;;;;;;;1.34;100.00;98126.47;5110270;28;20131;-77
2023/01/26 09:37:50;;;;;;;1999.90;999.90;;;;;;;1.31;100.00;98112.66;5108865;28;20016;-78
2023/01/26 09:40:35;;;;;;;1999.90;999.90;;;;;;;1.36;100.00;98120.84;5108219;28;20026;-77
2023/01/26 09:43:20;;;;;;;1999.90;999.90;;;;;;;1.43;100.00;98124.25;5109416;28;20396;-77
2023/01/26 09:45:59;;;;;;;1999.90;999.90;;;;;;;1.52;100.00;98114.75;5108467;28;20042;-78
2023/01/26 09:48:35;;;;;;;1999.90;999.90;;;;;;;1.46;100.00;98105.75;5110178;28;20023;-76
2023/01/26 09:51:24;;;;;;;1999.90;999.90;;;;;;;1.43;100.00;98110.78;5110093;28;20058;-77
2023/01/26 09:53:54;;;;;;;1999.90;999.90;;;;;;;1.42;100.00;98109.13;5108629;28;20176;-76
2023/01/26 09:56:24;;;;;;;1999.90;999.90;;;;;;;1.42;100.00;98095.66;5109795;28;20087;-77
2023/01/26 09:58:59;;;;;;;1999.90;999.90;;;;;;;1.43;100.00;98100.00;5109972;28;20028;-78
2023/01/26 10:01:45;;;;;;;;;;;;;;;1.47;100.00;98095.78;5110242;28;20484;-77
2023/01/26 10:04:37;;;;;;;1999.90;999.90;;;;;;;1.43;100.00;98097.31;5098500;28;19919;-77
2023/01/26 10:07:16;;;;;;;1999.90;999.90;;;;;;;1.22;100.00;98061.00;5108989;28;20043;-77
2023/01/26 10:09:46;;;;;;;1999.90;999.90;;;;;;;1.38;100.00;98089.91;5109542;28;20172;-77
2023/01/26 10:12:18;;;;;;;1999.90;999.90;;;;;;;1.41;100.00;98088.66;5109608;28;20074;-77
2023/01/26 10:14:58;;;;;;;1999.90;999.90;;;;;;;1.38;100.00;98083.72;5114443;28;20055;-77
2023/01/26 10:17:23;;;;;;;1999.90;999.90;;;;;;;1.36;100.00;98085.81;5116538;27;20464;-77
2023/01/26 10:20:04;;;;;;;1999.90;999.90;;;;;;;1.34;100.00;98082.53;5116587;28;20083;-77
2023/01/26 10:22:50;;;;;;;1999.90;999.90;;;;;;;1.34;100.00;98085.25;5115357;28;20036;-76
2023/01/26 10:25:19;;;;;;;1999.90;999.90;;;;;;;1.36;100.00;98080.44;5116257;27;20043;-76
2023/01/26 10:27:45;;;;;;;1999.90;999.90;;;;;;;1.34;100.00;98069.06;5106628;27;20055;-78
2023/01/26 10:30:15;;;;;;;1999.90;999.90;;;;;;;1.41;100.00;98069.78;5094567;28;20066;-77
2023/01/26 10:32:43;;;;;;;1999.90;999.90;;;;;;;1.40;100.00;98071.66;5094637;28;20542;-78
2023/01/26 10:35:21;;;;;;;1999.90;999.90;;;;;;;1.37;100.00;98058.66;5094498;28;20122;-77
2023/01/26 10:37:47;;;;;;;1999.90;999.90;;;;;;;1.36;100.00;98051.63;5096065;28;20032;-77
2023/01/26 10:40:13;;;;;;;1999.90;999.90;;;;;;;1.51;100.00;98062.75;5095673;28;20022;-77
2023/01/26 10:42:39;;;;;;;1999.90;999.90;;;;;;;1.45;100.00;98054.78;5095432;28;20415;-77
2023/01/26 10:45:31;;;;;;;1999.90;999.90;;;;;;;1.57;100.00;98050.19;5095730;28;20111;-77
2023/01/26 10:48:17;;;;;;;1999.90;999.90;;;;;;;1.49;100.00;98053.25;5096030;28;20485;-78
2023/01/26 10:50:43;;;;;;;1999.90;999.90;;;;;;;1.51;100.00;98049.25;5093336;28;20028;-78
2023/01/26 10:53:31;;;;;;;1999.90;999.90;;;;;;;1.44;100.00;98045.84;5097157;28;20020;-78
2023/01/26 10:56:05;;;;;;;1999.90;999.90;;;;;;;1.43;100.00;98052.31;5095760;28;20034;-77
2023/01/26 10:58:56;;;;;;;1999.90;999.90;;;;;;;1.45;100.00;98058.28;5094369;28;20110;-79
2023/01/26 11:01:26;;;;;;;1999.90;999.90;;;;;;;1.41;100.00;98045.53;5096088;28;20423;-77
2023/01/26 11:04:21;;;;;;;1999.90;999.90;;;;;;;1.45;100.00;98044.81;5096337;28;20384;-77
2023/01/26 11:06:47;;;;;;;1999.90;999.90;;;;;;;1.45;100.00;98035.91;5079162;28;20118;-77
2023/01/26 11:09:26;;;;;;;1999.90;999.90;;;;;;;1.47;100.00;98039.22;5099594;28;20027;-76
2023/01/26 11:11:59;;;;;;;1999.90;999.90;;;;;;;1.45;100.00;98033.22;5115952;27;20035;-77
2023/01/26 11:14:25;;;;;;;1999.90;999.90;;;;;;;1.44;100.00;98029.69;5106247;27;20426;-78
2023/01/26 11:16:50;;;;;;;1999.90;999.90;;;;;;;1.46;100.00;98024.91;5095877;28;20028;-77
2023/01/26 11:19:37;;;;;;;1999.90;999.90;;;;;;;1.39;100.00;98024.19;5095800;28;20168;-75
2023/01/26 11:22:12;;;;;;;1999.90;999.90;;;;;;;1.42;100.00;98012.13;5110486;28;20020;-77
2023/01/26 11:25:08;;;;;;;1999.90;999.90;;;;;;;1.52;100.00;98006.97;5114079;28;20072;-78
2023/01/26 11:27:52;;;;;;;1999.90;999.90;;;;;;;1.50;100.00;98014.47;5111537;28;20035;-77
2023/01/26 11:31:00;;;;;;;1999.90;999.90;;;;;;;1.46;100.00;98006.03;5111129;28;20487;-76
2023/01/26 11:33:31;;;;;;;1999.90;999.90;;;;;;;1.48;100.00;97997.72;5111249;28;20031;-76
2023/01/26 11:36:33;;;;;;;1999.90;999.90;;;;;;;1.48;100.00;97997.72;5112275;28;20488;-77
2023/01/26 11:39:25;;;;;;;1999.90;999.90;;;;;;;1.55;100.00;97987.63;5103768;28;20036;-78
2023/01/26 11:42:09;;;;;;;1999.90;999.90;;;;;;;1.51;100.00;97983.75;5093597;28;20122;-77
2023/01/26 11:44:54;;;;;;;1999.90;999.90;;;;;;;1.47;100.00;97980.72;5091960;28;20036;-77